Terminal Aerodrome Forecast
Issued by NWS

Home | Current Version | Previous Version | Text Only | Print | Product List | Glossary On
Versions: 1 2 3 4 5 6 7 8 9 10 11 12 13 14 15 16
000
FTUS46 KPDT 221100
TAFRDM
TAF
KRDM 221126Z 2212/2312 15010KT P6SM OVC080
     FM221800 32010KT P6SM VCTS BKN060CB OVC090 PROB30 2300/2306 5SM
      -TSRA BKN060CB OVC090
     FM230600 18003KT P6SM VCSH SCT060 BKN090=

USA.gov is the U.S. government's official web portal to all federal, state and local government web resources and services.